Time;durP1;ratioP1;P1;durP2;ratioP2;P2;SDS_P1;SDS_P2;PMS_P1;PMS_P2;Temp;Humidity;BMP_temperature;BMP_pressure;BME280_temperature;BME280_humidity;BME280_pressure;Samples;Min_cycle;Max_cycle;Signal;HPM_P1;HPM_P2
2023/04/03 00:02:25;;;;;;;0.88;0.88;;;14.60;56.30;;;;;;5065885;28;45194;-71
2023/04/03 00:04:53;;;;;;;0.65;0.65;;;14.60;56.30;;;;;;5065909;28;45223;-71
2023/04/03 00:07:20;;;;;;;0.70;0.70;;;14.50;56.30;;;;;;5065879;28;45421;-71
2023/04/03 00:09:47;;;;;;;0.80;0.80;;;14.50;56.30;;;;;;5065646;28;46435;-71
2023/04/03 00:12:15;;;;;;;0.80;0.80;;;14.50;56.30;;;;;;5064794;28;45206;-71
2023/04/03 00:14:42;;;;;;;0.93;0.90;;;14.40;56.30;;;;;;5065968;28;45368;-71
2023/04/03 00:17:08;;;;;;;1.05;0.82;;;14.50;56.30;;;;;;5065971;28;45501;-71
2023/04/03 00:19:35;;;;;;;0.80;0.80;;;14.50;56.30;;;;;;5065689;28;46419;-71
2023/04/03 00:22:03;;;;;;;0.80;0.80;;;14.50;56.20;;;;;;5065243;28;45325;-70
2023/04/03 00:24:30;;;;;;;0.82;0.82;;;14.50;56.30;;;;;;5065833;28;45227;-71
2023/04/03 00:26:57;;;;;;;1.00;0.90;;;14.50;56.20;;;;;;5065568;28;45605;-71
2023/04/03 00:29:24;;;;;;;0.90;0.90;;;14.50;56.20;;;;;;5065472;28;45472;-71
2023/04/03 00:31:51;;;;;;;0.90;0.90;;;14.40;56.20;;;;;;5065568;28;45311;-71
2023/04/03 00:34:17;;;;;;;0.90;0.90;;;14.40;56.10;;;;;;5065750;28;45340;-71
2023/04/03 00:36:44;;;;;;;0.85;0.80;;;14.40;56.00;;;;;;5065690;28;45377;-71
2023/04/03 00:39:12;;;;;;;0.80;0.80;;;14.40;56.20;;;;;;5065178;28;45340;-71
2023/04/03 00:41:40;;;;;;;0.80;0.80;;;14.40;56.10;;;;;;5065287;28;45317;-71
2023/04/03 00:44:21;;;;;;;0.80;0.80;;;14.40;56.20;;;;;;5065681;28;45325;-71
2023/04/03 00:46:47;;;;;;;0.80;0.80;;;14.40;56.20;;;;;;5065449;28;45311;-71
2023/04/03 00:49:14;;;;;;;1.00;1.00;;;14.40;56.10;;;;;;5065217;28;46396;-71
2023/04/03 00:51:41;;;;;;;0.90;0.90;;;14.30;56.10;;;;;;5065253;28;45361;-71
2023/04/03 00:54:08;;;;;;;0.60;0.60;;;14.30;56.10;;;;;;5065349;28;45259;-71
2023/04/03 00:56:36;;;;;;;0.80;0.80;;;14.30;56.70;;;;;;5065570;28;45236;-71
2023/04/03 00:59:04;;;;;;;0.70;0.70;;;14.30;56.10;;;;;;5064975;28;46298;-71
2023/04/03 01:01:31;;;;;;;1.02;1.02;;;14.30;56.00;;;;;;5065127;28;45262;-71
2023/04/03 01:03:59;;;;;;;1.17;1.08;;;14.30;56.10;;;;;;5065212;28;45333;-71
2023/04/03 01:06:30;;;;;;;0.98;0.95;;;14.30;56.10;;;;;;5065450;28;45397;-71
2023/04/03 01:08:57;;;;;;;0.90;0.90;;;14.30;56.00;;;;;;5064706;28;45801;-70
2023/04/03 01:11:24;;;;;;;0.82;0.82;;;14.30;56.00;;;;;;5064762;28;45274;-71
2023/04/03 01:13:52;;;;;;;2.03;1.00;;;14.30;56.00;;;;;;5065211;28;45510;-71
2023/04/03 01:16:19;;;;;;;0.93;0.82;;;14.30;56.00;;;;;;5065483;28;45368;-70
2023/04/03 01:18:46;;;;;;;0.73;0.73;;;14.20;55.90;;;;;;5065129;28;46421;-71
2023/04/03 01:21:42;;;;;;;1.13;1.02;;;14.20;55.90;;;;;;5064748;28;45308;-71
2023/04/03 01:24:17;;;;;;;0.90;0.80;;;14.20;56.00;;;;;;5067937;28;45309;-71
2023/04/03 01:26:44;;;;;;;0.85;0.85;;;14.20;56.00;;;;;;5067991;28;45256;-71
2023/04/03 01:29:12;;;;;;;0.80;0.80;;;14.10;56.00;;;;;;5067817;28;47277;-71
2023/04/03 01:31:54;;;;;;;0.93;0.82;;;14.20;56.00;;;;;;5067989;28;45395;-71
2023/04/03 01:34:21;;;;;;;1.65;0.85;;;14.20;55.90;;;;;;5068036;28;45187;-71
2023/04/03 01:36:47;;;;;;;0.90;0.90;;;14.10;55.90;;;;;;5067992;28;45404;-71
2023/04/03 01:39:14;;;;;;;0.88;0.68;;;14.10;55.90;;;;;;5067729;28;45373;-71
2023/04/03 01:41:41;;;;;;;0.95;0.90;;;14.10;55.90;;;;;;5067739;28;45325;-71
2023/04/03 01:44:08;;;;;;;0.70;0.70;;;14.10;55.90;;;;;;5067811;28;45264;-70
2023/04/03 01:46:35;;;;;;;0.80;0.80;;;14.10;55.80;;;;;;5067952;28;45267;-71
2023/04/03 01:49:03;;;;;;;0.68;0.68;;;14.10;55.90;;;;;;5067283;28;45492;-70
2023/04/03 01:51:30;;;;;;;1.20;1.10;;;14.10;55.90;;;;;;5067714;28;45356;-71
2023/04/03 01:53:57;;;;;;;0.60;0.60;;;14.10;55.90;;;;;;5067758;28;45254;-70
2023/04/03 01:56:24;;;;;;;0.80;0.80;;;14.10;55.90;;;;;;5067671;28;45308;-71
2023/04/03 01:58:51;;;;;;;1.40;0.80;;;14.10;55.90;;;;;;5067370;28;45462;-70
2023/04/03 02:01:18;;;;;;;0.60;0.60;;;14.10;55.80;;;;;;5067304;28;45417;-71
2023/04/03 02:03:45;;;;;;;0.70;0.70;;;14.10;55.80;;;;;;5067399;28;45380;-71
2023/04/03 02:06:13;;;;;;;0.70;0.70;;;14.10;56.40;;;;;;5067638;28;45559;-70
2023/04/03 02:08:41;;;;;;;0.80;0.70;;;14.10;55.80;;;;;;5067302;28;47707;-71
2023/04/03 02:11:08;;;;;;;1.33;0.80;;;14.10;55.80;;;;;;5067351;28;45448;-71
2023/04/03 02:13:35;;;;;;;0.70;0.70;;;14.00;55.70;;;;;;5067545;28;45322;-71
2023/04/03 02:16:07;;;;;;;1.10;1.00;;;14.00;55.70;;;;;;5067501;28;45508;-71
2023/04/03 02:18:34;;;;;;;0.90;0.90;;;14.00;55.70;;;;;;5067072;28;45519;-70
2023/04/03 02:21:01;;;;;;;0.93;0.90;;;14.00;55.70;;;;;;5067135;28;45371;-70
2023/04/03 02:23:29;;;;;;;0.70;0.70;;;14.00;55.70;;;;;;5067188;28;45348;-71
2023/04/03 02:26:04;;;;;;;0.98;0.93;;;14.00;55.60;;;;;;5066883;28;45409;-71
2023/04/03 02:28:31;;;;;;;0.70;0.70;;;14.00;55.70;;;;;;5066853;28;46649;-71
2023/04/03 02:30:57;;;;;;;1.02;0.90;;;14.00;55.70;;;;;;5067100;28;45412;-70
2023/04/03 02:33:24;;;;;;;0.60;0.60;;;14.00;55.70;;;;;;5066725;28;45314;-71
2023/04/03 02:35:54;;;;;;;1.80;0.82;;;14.00;55.60;;;;;;5066489;28;45339;-70
2023/04/03 02:38:20;;;;;;;0.70;0.70;;;13.90;55.60;;;;;;5064026;28;46182;-71
2023/04/03 02:40:49;;;;;;;0.70;0.70;;;13.90;55.60;;;;;;5066848;28;45266;-71
2023/04/03 02:43:15;;;;;;;0.80;0.80;;;13.90;55.60;;;;;;5066950;28;45437;-71
2023/04/03 02:45:42;;;;;;;0.60;0.60;;;13.90;55.60;;;;;;5067366;28;45325;-71
2023/04/03 02:48:09;;;;;;;0.82;0.82;;;13.90;55.60;;;;;;5066421;28;46513;-71
2023/04/03 02:50:36;;;;;;;0.93;0.80;;;13.90;55.70;;;;;;5066752;28;45230;-71
2023/04/03 02:53:03;;;;;;;0.80;0.80;;;13.90;55.60;;;;;;5066874;28;45318;-70
2023/04/03 02:55:30;;;;;;;0.70;0.70;;;13.90;55.60;;;;;;5066983;28;45297;-70
2023/04/03 02:57:58;;;;;;;0.70;0.70;;;13.80;55.60;;;;;;5066593;28;46275;-70
2023/04/03 03:00:24;;;;;;;0.85;0.70;;;13.80;55.60;;;;;;5066678;28;45251;-71
2023/04/03 03:02:51;;;;;;;0.90;0.90;;;13.80;55.50;;;;;;5066554;28;45393;-71
2023/04/03 03:05:18;;;;;;;0.80;0.80;;;13.80;55.60;;;;;;5066695;28;45389;-70
2023/04/03 03:07:45;;;;;;;0.80;0.80;;;13.80;55.60;;;;;;5066211;28;45483;-70
2023/04/03 03:10:12;;;;;;;0.70;0.70;;;13.80;55.60;;;;;;5066454;28;45384;-70
2023/04/03 03:12:40;;;;;;;0.93;0.93;;;13.70;55.50;;;;;;5066403;28;45295;-71
2023/04/03 03:15:09;;;;;;;0.60;0.60;;;13.70;55.50;;;;;;5066671;28;45238;-71
2023/04/03 03:17:36;;;;;;;0.90;0.90;;;13.70;55.50;;;;;;5066110;28;45680;-71
2023/04/03 03:20:03;;;;;;;0.65;0.65;;;13.70;55.50;;;;;;5066141;28;45330;-70
2023/04/03 03:22:30;;;;;;;1.17;0.90;;;13.70;55.50;;;;;;5065858;28;45309;-71
2023/04/03 03:24:57;;;;;;;1.63;1.08;;;13.70;55.50;;;;;;5066345;28;45269;-71
2023/04/03 03:27:24;;;;;;;0.88;0.88;;;13.70;55.40;;;;;;5065936;28;46879;-71
2023/04/03 03:29:51;;;;;;;2.33;1.00;;;13.70;55.40;;;;;;5065876;28;45447;-70
2023/04/03 03:32:19;;;;;;;0.73;0.73;;;13.70;55.60;;;;;;5066099;28;45405;-70
2023/04/03 03:34:46;;;;;;;0.50;0.50;;;13.60;55.50;;;;;;5066229;28;45116;-70
2023/04/03 03:37:13;;;;;;;0.88;0.88;;;13.60;55.50;;;;;;5065881;28;46386;-71
2023/04/03 03:39:40;;;;;;;0.70;0.70;;;13.60;55.50;;;;;;5065840;28;45261;-70
2023/04/03 03:42:06;;;;;;;0.85;0.85;;;13.60;55.40;;;;;;5066058;28;45487;-70
2023/04/03 03:44:33;;;;;;;1.20;0.77;;;13.60;56.10;;;;;;5066044;28;45424;-70
2023/04/03 03:47:00;;;;;;;0.80;0.80;;;13.60;55.40;;;;;;5065411;28;45562;-71
2023/04/03 03:49:28;;;;;;;0.80;0.80;;;13.60;55.50;;;;;;5065563;28;45234;-70
2023/04/03 03:51:55;;;;;;;0.75;0.75;;;13.60;55.50;;;;;;5065897;28;45368;-71
2023/04/03 03:54:22;;;;;;;0.63;0.63;;;13.60;55.50;;;;;;5066010;28;45405;-71
2023/04/03 03:56:49;;;;;;;0.75;0.75;;;13.60;55.50;;;;;;5065594;28;45258;-70
2023/04/03 03:59:16;;;;;;;0.90;0.90;;;13.50;55.40;;;;;;5065594;28;45337;-71
2023/04/03 04:01:43;;;;;;;0.70;0.70;;;13.50;55.40;;;;;;5065796;28;45258;-70
2023/04/03 04:04:09;;;;;;;0.80;0.80;;;13.50;55.40;;;;;;5065887;28;45377;-70
2023/04/03 04:06:38;;;;;;;3.60;0.80;;;13.50;55.50;;;;;;5065461;28;46734;-70
2023/04/03 04:09:05;;;;;;;1.15;0.80;;;13.50;55.40;;;;;;5065365;28;45365;-70
2023/04/03 04:11:33;;;;;;;0.75;0.75;;;13.50;55.40;;;;;;5065615;28;45311;-70
2023/04/03 04:13:59;;;;;;;0.70;0.70;;;13.50;55.40;;;;;;5065802;28;45340;-70
2023/04/03 04:16:26;;;;;;;1.20;1.00;;;13.50;56.00;;;;;;5065235;28;45487;-70
2023/04/03 04:18:53;;;;;;;0.68;0.68;;;13.50;55.40;;;;;;5065260;28;45405;-70
2023/04/03 04:21:20;;;;;;;0.82;0.82;;;13.50;56.00;;;;;;5065523;28;45249;-70
2023/04/03 04:23:48;;;;;;;0.60;0.60;;;13.50;55.40;;;;;;5065555;28;45334;-70
2023/04/03 04:26:15;;;;;;;0.93;0.70;;;13.50;55.40;;;;;;5064756;28;45485;-70
2023/04/03 04:28:42;;;;;;;0.90;0.90;;;13.50;55.40;;;;;;5064935;28;45656;-70
2023/04/03 04:31:08;;;;;;;0.68;0.68;;;13.40;55.30;;;;;;5065423;28;45419;-70
2023/04/03 04:33:35;;;;;;;0.77;0.75;;;13.40;55.90;;;;;;5065523;28;45289;-71
2023/04/03 04:36:02;;;;;;;0.60;0.60;;;13.40;55.30;;;;;;5064974;28;45530;-70
2023/04/03 04:38:29;;;;;;;0.68;0.68;;;13.40;55.30;;;;;;5065106;28;45275;-70
2023/04/03 04:40:57;;;;;;;0.80;0.77;;;13.40;55.30;;;;;;5065263;28;45341;-70
2023/04/03 04:43:24;;;;;;;0.80;0.80;;;13.40;55.40;;;;;;5065264;28;45445;-70
2023/04/03 04:46:01;;;;;;;1.23;0.70;;;13.40;55.30;;;;;;5064943;28;45485;-70
2023/04/03 04:48:28;;;;;;;0.68;0.68;;;13.40;55.30;;;;;;5064740;28;45205;-70
2023/04/03 04:50:55;;;;;;;0.80;0.80;;;13.40;55.40;;;;;;5065164;28;45156;-70
2023/04/03 04:53:21;;;;;;;0.63;0.63;;;13.40;55.30;;;;;;5065360;28;45472;-70
2023/04/03 04:55:48;;;;;;;0.63;0.63;;;13.40;55.30;;;;;;5064922;28;45325;-70
2023/04/03 04:58:16;;;;;;;0.70;0.70;;;13.40;55.30;;;;;;5066770;28;45373;-70
2023/04/03 05:00:43;;;;;;;1.55;0.80;;;13.30;55.30;;;;;;5068705;28;45136;-70
2023/04/03 05:03:10;;;;;;;0.85;0.70;;;13.30;55.30;;;;;;5068654;28;45467;-70
2023/04/03 05:05:37;;;;;;;0.65;0.65;;;13.30;55.30;;;;;;5068292;28;46384;-70
2023/04/03 05:08:04;;;;;;;0.55;0.55;;;13.30;55.30;;;;;;5068121;28;45317;-70
2023/04/03 05:10:31;;;;;;;0.98;0.90;;;13.30;55.30;;;;;;5068298;28;45250;-70
2023/04/03 05:12:58;;;;;;;0.70;0.70;;;13.30;55.30;;;;;;5068686;28;45186;-70
2023/04/03 05:15:26;;;;;;;0.50;0.50;;;13.30;55.30;;;;;;5068131;28;46666;-70
2023/04/03 05:17:53;;;;;;;1.20;0.90;;;13.30;55.30;;;;;;5067961;28;45360;-70
2023/04/03 05:20:20;;;;;;;0.60;0.50;;;13.30;55.30;;;;;;5068294;28;45428;-70
2023/04/03 05:22:46;;;;;;;1.60;0.60;;;13.30;55.30;;;;;;5068428;28;45329;-70
2023/04/03 05:25:13;;;;;;;0.75;0.75;;;13.30;55.30;;;;;;5067594;28;46702;-70
2023/04/03 05:27:40;;;;;;;0.40;0.40;;;13.30;55.30;;;;;;5067846;28;45254;-70
2023/04/03 05:30:08;;;;;;;0.70;0.70;;;13.30;55.30;;;;;;5068087;28;45375;-70
2023/04/03 05:32:36;;;;;;;0.70;0.70;;;13.30;55.30;;;;;;5068399;28;45404;-70
2023/04/03 05:35:03;;;;;;;0.70;0.70;;;13.20;55.30;;;;;;5067835;28;46376;-70
2023/04/03 05:37:30;;;;;;;1.60;0.95;;;13.20;55.30;;;;;;5067883;28;45300;-70
2023/04/03 05:39:57;;;;;;;0.85;0.70;;;13.20;55.30;;;;;;5067985;28;45305;-70
2023/04/03 05:42:24;;;;;;;0.70;0.70;;;13.20;55.30;;;;;;5067924;28;45437;-70
2023/04/03 05:44:51;;;;;;;0.60;0.60;;;13.20;55.30;;;;;;5067531;28;46396;-70
2023/04/03 05:47:17;;;;;;;1.02;0.70;;;13.20;55.30;;;;;;5067564;28;45341;-70
2023/04/03 05:49:46;;;;;;;0.70;0.70;;;13.20;55.20;;;;;;5067614;28;45314;-70
2023/04/03 05:52:18;;;;;;;0.70;0.70;;;13.20;55.30;;;;;;5067943;28;45363;-70
2023/04/03 05:54:46;;;;;;;1.95;0.85;;;13.20;55.30;;;;;;5067466;28;46665;-70
2023/04/03 05:57:13;;;;;;;0.70;0.70;;;13.20;55.30;;;;;;5067325;28;45399;-70
2023/04/03 05:59:40;;;;;;;2.13;0.65;;;13.20;55.30;;;;;;5067693;28;45343;-70
2023/04/03 06:02:07;;;;;;;1.35;0.80;;;13.20;55.30;;;;;;5067762;28;45398;-70
2023/04/03 06:04:33;;;;;;;0.70;0.70;;;13.20;55.30;;;;;;5067286;28;45378;-70
2023/04/03 06:07:02;;;;;;;0.82;0.82;;;13.20;55.30;;;;;;5067340;28;45262;-70
2023/04/03 06:09:29;;;;;;;0.65;0.65;;;13.20;55.30;;;;;;5067286;28;45479;-70
2023/04/03 06:11:58;;;;;;;0.80;0.80;;;13.20;55.30;;;;;;5067542;28;45565;-70
2023/04/03 06:14:25;;;;;;;0.70;0.70;;;13.20;55.20;;;;;;5067232;28;45627;-70
2023/04/03 06:16:52;;;;;;;0.80;0.80;;;13.10;55.20;;;;;;5067097;28;45370;-70
2023/04/03 06:19:19;;;;;;;0.70;0.70;;;13.20;55.20;;;;;;5067229;28;45433;-70
2023/04/03 06:21:46;;;;;;;3.15;1.00;;;13.10;55.10;;;;;;5067386;28;45479;-70
2023/04/03 06:24:15;;;;;;;0.70;0.70;;;13.20;55.20;;;;;;5066980;28;46928;-70
2023/04/03 06:26:42;;;;;;;0.70;0.65;;;13.20;55.20;;;;;;5066746;28;45241;-70
2023/04/03 06:29:09;;;;;;;0.65;0.65;;;13.20;55.10;;;;;;5067050;28;45341;-70
2023/04/03 06:31:36;;;;;;;0.68;0.68;;;13.20;55.10;;;;;;5067241;28;45355;-70
2023/04/03 06:34:03;;;;;;;0.60;0.60;;;13.20;55.10;;;;;;5066904;28;45271;-70
2023/04/03 06:36:30;;;;;;;0.80;0.80;;;13.20;55.10;;;;;;5066756;28;45375;-70
2023/04/03 06:38:57;;;;;;;0.70;0.70;;;13.20;55.10;;;;;;5066877;28;45484;-70
2023/04/03 06:41:26;;;;;;;2.22;0.90;;;13.20;55.00;;;;;;5067246;28;45426;-70
2023/04/03 06:43:52;;;;;;;1.25;0.80;;;13.20;55.00;;;;;;5066691;28;45389;-70
2023/04/03 06:46:20;;;;;;;0.70;0.70;;;13.20;55.00;;;;;;5066366;28;45690;-70
2023/04/03 06:48:47;;;;;;;0.80;0.75;;;13.20;55.00;;;;;;5066669;28;45323;-70
2023/04/03 06:51:25;;;;;;;2.92;0.85;;;13.20;55.00;;;;;;5067084;28;45315;-70
2023/04/03 06:53:53;;;;;;;0.70;0.70;;;13.20;55.00;;;;;;5066434;28;47553;-70
2023/04/03 06:56:20;;;;;;;1.85;0.77;;;13.20;55.00;;;;;;5066461;28;45282;-70
2023/04/03 06:58:48;;;;;;;0.70;0.70;;;13.20;55.00;;;;;;5066686;28;45376;-70
2023/04/03 07:01:16;;;;;;;0.73;0.70;;;13.20;55.30;;;;;;5066720;28;45371;-70
2023/04/03 07:03:43;;;;;;;1.00;0.70;;;13.20;55.00;;;;;;5066487;28;46800;-70
2023/04/03 07:06:11;;;;;;;0.93;0.77;;;13.20;55.00;;;;;;5066283;28;45262;-70
2023/04/03 07:08:38;;;;;;;0.68;0.68;;;13.20;55.00;;;;;;5066488;28;45307;-70
2023/04/03 07:11:05;;;;;;;1.08;0.98;;;13.20;55.00;;;;;;5066615;28;45368;-70
2023/04/03 07:13:32;;;;;;;0.65;0.65;;;13.20;54.90;;;;;;5066392;28;47347;-70
2023/04/03 07:16:00;;;;;;;0.80;0.80;;;13.20;54.90;;;;;;5066187;28;45281;-70
2023/04/03 07:18:27;;;;;;;0.77;0.68;;;13.20;54.90;;;;;;5066392;28;45392;-70
2023/04/03 07:20:54;;;;;;;0.80;0.80;;;13.20;54.90;;;;;;5065887;28;45380;-70
2023/04/03 07:23:21;;;;;;;0.80;0.80;;;13.20;54.90;;;;;;5065999;28;45661;-70
2023/04/03 07:25:48;;;;;;;0.90;0.90;;;13.20;54.80;;;;;;5065745;28;45461;-70
2023/04/03 07:28:15;;;;;;;1.23;0.70;;;13.20;54.80;;;;;;5066179;28;45251;-70
2023/04/03 07:30:45;;;;;;;0.88;0.70;;;13.20;54.70;;;;;;5066317;28;45559;-70
2023/04/03 07:33:14;;;;;;;0.98;0.85;;;13.30;54.80;;;;;;5065899;28;45688;-70
2023/04/03 07:35:41;;;;;;;1.02;0.80;;;13.30;54.80;;;;;;5066050;28;45266;-70
2023/04/03 07:38:08;;;;;;;2.08;0.80;;;13.30;54.70;;;;;;5065936;28;45483;-70
2023/04/03 07:40:35;;;;;;;0.60;0.60;;;13.30;55.10;;;;;;5066192;28;45307;-70
2023/04/03 07:43:02;;;;;;;0.88;0.80;;;13.30;54.60;;;;;;5065764;28;46678;-70
2023/04/03 07:45:29;;;;;;;0.60;0.60;;;13.30;54.60;;;;;;5065824;28;45309;-70
2023/04/03 07:47:55;;;;;;;0.98;0.90;;;13.30;54.60;;;;;;5065845;28;45298;-70
2023/04/03 07:50:24;;;;;;;0.70;0.70;;;13.30;54.50;;;;;;5066060;28;45461;-70
2023/04/03 07:52:52;;;;;;;0.65;0.65;;;13.30;54.60;;;;;;5065640;28;45502;-70
2023/04/03 07:55:19;;;;;;;0.75;0.75;;;13.30;54.40;;;;;;5065618;28;45316;-70
2023/04/03 07:57:46;;;;;;;0.70;0.70;;;13.30;54.40;;;;;;5065709;28;45314;-70
2023/04/03 08:00:14;;;;;;;3.22;1.05;;;13.40;54.40;;;;;;5065928;28;45418;-70
2023/04/03 08:02:41;;;;;;;1.45;0.80;;;13.40;53.30;;;;;;5065742;28;46622;-70
2023/04/03 08:05:09;;;;;;;1.98;1.20;;;13.30;52.10;;;;;;5065515;28;45327;-70
2023/04/03 08:07:37;;;;;;;2.60;1.25;;;13.30;50.70;;;;;;5065518;28;45243;-70
2023/04/03 08:10:05;;;;;;;4.07;1.20;;;13.30;49.80;;;;;;5065629;28;45444;-71
2023/04/03 08:12:31;;;;;;;2.92;1.45;;;13.30;49.40;;;;;;5065425;28;45773;-70
2023/04/03 08:15:00;;;;;;;1.02;0.95;;;13.30;49.70;;;;;;5065526;28;45354;-71
2023/04/03 08:17:27;;;;;;;3.50;1.35;;;13.30;50.20;;;;;;5072379;28;45341;-71
2023/04/03 08:19:53;;;;;;;0.95;0.95;;;13.30;50.50;;;;;;5085784;28;45376;-72
2023/04/03 08:22:20;;;;;;;1.05;0.95;;;13.30;51.30;;;;;;5085492;28;46669;-71
2023/04/03 08:24:48;;;;;;;3.67;1.05;;;13.40;51.20;;;;;;5085395;28;45384;-70
2023/04/03 08:27:15;;;;;;;1.05;1.00;;;13.40;51.20;;;;;;5085429;28;45404;-71
2023/04/03 08:29:42;;;;;;;1.10;1.00;;;13.40;51.50;;;;;;5085844;28;45242;-71
2023/04/03 08:32:09;;;;;;;1.40;1.23;;;13.40;51.50;;;;;;5085741;27;45512;-71
2023/04/03 08:34:38;;;;;;;1.00;0.90;;;13.40;51.60;;;;;;5089110;28;45343;-70
2023/04/03 08:37:05;;;;;;;5.25;1.00;;;13.50;51.70;;;;;;5089095;28;45329;-70
2023/04/03 08:39:32;;;;;;;1.38;0.90;;;13.50;51.70;;;;;;5089350;28;45188;-71
2023/04/03 08:42:01;;;;;;;9.55;1.30;;;13.50;51.70;;;;;;5088893;28;46632;-70
2023/04/03 08:44:33;;;;;;;3.20;1.63;;;13.50;50.40;;;;;;5089173;28;45287;-70
2023/04/03 08:47:16;;;;;;;3.97;1.52;;;13.40;47.20;;;;;;5089164;28;45379;-70
2023/04/03 08:49:47;;;;;;;2.58;1.90;;;13.30;47.10;;;;;;5089141;28;45472;-71
2023/04/03 08:52:15;;;;;;;1.65;1.55;;;13.20;47.20;;;;;;5088706;28;46399;-71
2023/04/03 08:54:49;;;;;;;1.85;1.65;;;13.20;47.70;;;;;;5088809;28;45183;-70
2023/04/03 08:57:17;;;;;;;3.05;1.50;;;13.10;48.40;;;;;;5088933;28;45304;-70
2023/04/03 08:59:44;;;;;;;6.35;1.70;;;13.10;49.00;;;;;;5088922;28;45721;-70
2023/04/03 09:02:23;;;;;;;2.88;1.73;;;13.20;49.50;;;;;;5088709;28;45245;-69
2023/04/03 09:04:49;;;;;;;1.40;1.30;;;13.20;49.80;;;;;;5088765;28;45245;-70
2023/04/03 09:07:19;;;;;;;1.30;1.20;;;13.30;50.10;;;;;;5088604;28;45274;-70
2023/04/03 09:09:48;;;;;;;1.25;1.15;;;13.30;50.20;;;;;;5088749;28;45444;-70
2023/04/03 09:12:23;;;;;;;2.10;1.27;;;13.30;50.30;;;;;;5088744;28;45529;-70
2023/04/03 09:14:56;;;;;;;3.65;1.40;;;13.30;50.30;;;;;;5088614;28;45297;-69
2023/04/03 09:17:36;;;;;;;1.80;1.23;;;13.30;50.50;;;;;;5088627;28;45447;-69
2023/04/03 09:20:07;;;;;;;3.17;1.58;;;13.30;50.70;;;;;;5088730;28;45476;-70
2023/04/03 09:22:34;;;;;;;1.73;1.35;;;13.40;50.80;;;;;;5088416;28;45299;-72
2023/04/03 09:25:03;;;;;;;1.70;1.20;;;13.40;50.90;;;;;;5088090;28;45389;-70
2023/04/03 09:27:31;;;;;;;2.25;1.50;;;13.40;50.70;;;;;;5087269;28;45292;-71
2023/04/03 09:29:58;;;;;;;2.22;1.65;;;13.50;50.60;;;;;;5087495;28;45429;-70
2023/04/03 09:32:27;;;;;;;3.83;1.20;;;13.50;50.30;;;;;;5087164;28;46486;-72
2023/04/03 09:34:54;;;;;;;2.33;1.50;;;13.50;50.40;;;;;;5087091;28;45408;-68
2023/04/03 09:37:40;;;;;;;1.50;1.40;;;13.60;50.50;;;;;;5087155;28;45309;-68
2023/04/03 09:40:28;;;;;;;1.73;1.52;;;13.70;50.50;;;;;;5087370;28;45390;-69
2023/04/03 09:42:57;;;;;;;2.80;1.38;;;13.70;50.20;;;;;;5086532;28;46709;-69
2023/04/03 09:45:26;;;;;;;2.00;1.30;;;13.70;49.00;;;;;;5086941;28;45364;-69
2023/04/03 09:48:08;;;;;;;3.58;1.33;;;13.80;49.10;;;;;;5086863;28;45372;-68
2023/04/03 09:50:35;;;;;;;1.50;1.40;;;13.80;49.30;;;;;;5087139;28;45284;-69
2023/04/03 09:53:05;;;;;;;1.30;1.20;;;13.80;49.50;;;;;;5086765;28;45698;-68
2023/04/03 09:55:32;;;;;;;1.48;1.20;;;13.90;49.50;;;;;;5084160;28;45274;-68
2023/04/03 09:58:01;;;;;;;2.70;1.13;;;13.90;49.70;;;;;;5086860;28;45310;-68
2023/04/03 10:00:32;;;;;;;2.20;1.40;;;13.80;48.60;;;;;;5086940;28;45413;-70
2023/04/03 10:02:59;;;;;;;1.38;1.23;;;13.80;47.10;;;;;;5086737;28;46641;-68
2023/04/03 10:05:33;;;;;;;1.25;1.15;;;13.70;46.10;;;;;;5086399;28;45380;-70
2023/04/03 10:08:20;;;;;;;1.50;1.10;;;13.70;46.40;;;;;;5087465;27;45479;-69
2023/04/03 10:10:48;;;;;;;1.35;1.10;;;13.60;43.30;;;;;;5085255;27;46073;-69
2023/04/03 10:13:18;;;;;;;2.90;1.80;;;13.50;44.10;;;;;;5086527;27;45429;-70
2023/04/03 10:15:46;;;;;;;3.60;2.25;;;13.50;44.80;;;;;;5098406;27;45280;-68
2023/04/03 10:18:24;;;;;;;2.17;1.55;;;13.50;45.00;;;;;;5095137;27;45432;-73
2023/04/03 10:20:51;;;;;;;2.45;1.50;;;13.50;45.00;;;;;;5086625;28;45305;-73
2023/04/03 10:23:20;;;;;;;1.40;1.30;;;13.60;45.00;;;;;;5086058;28;47778;-72
2023/04/03 10:25:52;;;;;;;1.17;1.17;;;13.60;44.20;;;;;;5037788;28;1375375;-74
2023/04/03 10:28:21;;;;;;;4.05;1.40;;;13.50;44.20;;;;;;5096219;27;45185;-70
2023/04/03 10:30:50;;;;;;;1.63;1.40;;;13.60;45.10;;;;;;5084421;27;45279;-70
2023/04/03 10:33:26;;;;;;;3.42;1.17;;;13.60;45.20;;;;;;5071825;27;46600;-69
2023/04/03 10:35:59;;;;;;;5.95;1.35;;;13.70;45.00;;;;;;5081077;28;45448;-71
2023/04/03 10:38:32;;;;;;;1.52;1.27;;;13.70;45.20;;;;;;5093541;27;45229;-71
2023/04/03 10:41:01;;;;;;;2.10;1.70;;;13.70;43.90;;;;;;5088957;27;45362;-69
2023/04/03 10:43:35;;;;;;;2.67;1.20;;;13.70;43.40;;;;;;5087080;27;46500;-71
2023/04/03 10:46:03;;;;;;;3.92;1.05;;;13.80;42.90;;;;;;5087106;27;45419;-69
2023/04/03 10:48:41;;;;;;;1.27;1.05;;;13.80;43.90;;;;;;5102045;27;45332;-69
2023/04/03 10:51:15;;;;;;;1.67;1.15;;;13.80;43.10;;;;;;5073375;27;45485;-68
2023/04/03 10:53:45;;;;;;;1.38;1.10;;;13.80;43.10;;;;;;5094629;27;45402;-68
2023/04/03 10:56:14;;;;;;;0.90;0.90;;;13.80;43.30;;;;;;5084256;27;45336;-68
2023/04/03 10:58:44;;;;;;;1.10;1.00;;;13.80;42.80;;;;;;5088673;27;45269;-70
2023/04/03 11:01:12;;;;;;;4.40;1.75;;;13.90;43.60;;;;;;5087316;28;45258;-70
2023/04/03 11:03:41;;;;;;;2.22;1.38;;;13.90;44.20;;;;;;5085061;27;45769;-69
2023/04/03 11:06:09;;;;;;;1.80;1.38;;;14.00;44.60;;;;;;5083902;28;45501;-70
2023/04/03 11:08:39;;;;;;;2.00;1.20;;;14.00;44.90;;;;;;5087265;27;45323;-69
2023/04/03 11:11:07;;;;;;;2.10;1.20;;;14.10;44.80;;;;;;5101000;27;45261;-70
2023/04/03 11:13:35;;;;;;;2.13;1.23;;;14.10;43.70;;;;;;5096282;27;47363;-68
2023/04/03 11:16:03;;;;;;;3.47;1.25;;;14.20;43.50;;;;;;5091059;27;45373;-71
2023/04/03 11:18:33;;;;;;;5.07;1.30;;;14.20;43.40;;;;;;5105760;27;45499;-69
2023/04/03 11:21:03;;;;;;;2.22;1.42;;;14.20;43.30;;;;;;5107506;27;45242;-70
2023/04/03 11:23:31;;;;;;;1.33;1.20;;;14.30;42.40;;;;;;5093798;27;45517;-68
2023/04/03 11:26:02;;;;;;;3.35;1.58;;;14.30;42.00;;;;;;5084619;28;45519;-68
2023/04/03 11:28:30;;;;;;;4.97;1.30;;;14.30;41.50;;;;;;5087599;27;45357;-70
2023/04/03 11:31:00;;;;;;;1.40;1.20;;;14.30;41.70;;;;;;5077355;28;45234;-70
2023/04/03 11:33:43;;;;;;;2.15;1.35;;;14.40;41.60;;;;;;5074183;27;46447;-70
2023/04/03 11:36:11;;;;;;;1.58;1.48;;;14.40;41.90;;;;;;5087586;27;45396;-68
2023/04/03 11:38:40;;;;;;;3.25;2.60;;;14.50;42.20;;;;;;5106877;27;45193;-68
2023/04/03 11:41:08;;;;;;;3.75;1.52;;;14.50;42.70;;;;;;5102002;27;45343;-68
2023/04/03 11:43:35;;;;;;;1.60;1.40;;;14.50;43.70;;;;;;5094128;27;47365;-69
2023/04/03 11:46:02;;;;;;;2.50;1.55;;;14.60;43.10;;;;;;5088693;27;45267;-68
2023/04/03 11:48:50;;;;;;;3.55;1.88;;;14.60;43.60;;;;;;5089547;28;45186;-67
2023/04/03 11:51:39;;;;;;;1.90;1.40;;;14.60;43.70;;;;;;5080588;27;45226;-68
2023/04/03 11:54:35;;;;;;;2.05;1.23;;;14.60;44.20;;;;;;5098489;27;45502;-69
2023/04/03 11:57:22;;;;;;;3.47;1.63;;;14.80;44.50;;;;;;5074202;27;45320;-67
2023/04/03 11:59:49;;;;;;;1.90;1.63;;;15.00;43.90;;;;;;5080602;27;45249;-71
2023/04/03 12:02:37;;;;;;;4.60;1.50;;;15.00;43.80;;;;;;5080734;27;45414;-69
2023/04/03 12:05:27;;;;;;;1.58;1.48;;;15.00;43.80;;;;;;5086755;27;46736;-69
2023/04/03 12:08:27;;;;;;;1.70;1.15;;;15.10;44.10;;;;;;5087315;28;45174;-68
2023/04/03 12:11:16;;;;;;;4.70;1.67;;;15.10;44.30;;;;;;5075080;27;45285;-69
2023/04/03 12:14:02;;;;;;;12.80;2.10;;;15.20;44.40;;;;;;5079038;27;45296;-72
2023/04/03 12:16:30;;;;;;;5.57;1.60;;;15.20;44.50;;;;;;5093250;27;45628;-70
2023/04/03 12:18:59;;;;;;;3.97;1.60;;;15.10;44.60;;;;;;5105001;27;45402;-70
2023/04/03 12:22:00;;;;;;;2.72;1.40;;;15.10;44.80;;;;;;5101429;27;45665;-69
2023/04/03 12:24:28;;;;;;;4.47;1.65;;;15.10;44.50;;;;;;5082800;27;45274;-70
2023/04/03 12:27:10;;;;;;;3.90;1.58;;;15.10;44.50;;;;;;5087890;27;46746;-69
2023/04/03 12:29:40;;;;;;;2.85;1.65;;;15.10;44.50;;;;;;5084947;28;45292;-71
2023/04/03 12:32:11;;;;;;;3.38;1.38;;;15.00;44.70;;;;;;5068793;28;45132;-71
2023/04/03 12:34:53;;;;;;;1.20;1.15;;;15.10;44.80;;;;;;5098775;27;45425;-71
2023/04/03 12:37:28;;;;;;;2.88;1.40;;;15.00;44.90;;;;;;5085478;28;46567;-70
2023/04/03 12:40:02;;;;;;;1.00;1.00;;;15.00;44.90;;;;;;5080125;28;45273;-72
2023/04/03 12:42:40;;;;;;;1.20;1.10;;;15.00;45.10;;;;;;5085024;28;45265;-71
2023/04/03 12:45:12;;;;;;;3.78;1.50;;;14.90;45.30;;;;;;5078713;27;45372;-71
2023/04/03 12:47:39;;;;;;;4.20;1.70;;;15.00;45.40;;;;;;5077975;28;46657;-71
2023/04/03 12:50:17;;;;;;;2.17;1.20;;;14.90;45.50;;;;;;5085573;28;45391;-71
2023/04/03 12:52:46;;;;;;;1.55;1.45;;;14.90;45.60;;;;;;5070325;28;45349;-70
2023/04/03 12:55:19;;;;;;;1.70;1.50;;;14.80;45.60;;;;;;5085283;28;45262;-71
2023/04/03 12:57:45;;;;;;;4.50;1.50;;;14.80;45.70;;;;;;5084980;28;46417;-70